sensor_id;sensor_type;location;lat;lon;timestamp;temperature;humidity
16827;DHT22;8530;49.540;8.576;2023-04-23T00:00:48;14.40;99.20
16827;DHT22;8530;49.540;8.576;2023-04-23T00:03:20;14.40;99.20
16827;DHT22;8530;49.540;8.576;2023-04-23T00:05:51;14.40;99.30
16827;DHT22;8530;49.540;8.576;2023-04-23T00:08:18;14.40;99.40
16827;DHT22;8530;49.540;8.576;2023-04-23T00:10:45;14.40;99.40
16827;DHT22;8530;49.540;8.576;2023-04-23T00:13:12;14.40;99.50
16827;DHT22;8530;49.540;8.576;2023-04-23T00:15:39;14.40;99.50
16827;DHT22;8530;49.540;8.576;2023-04-23T00:18:06;14.30;99.50
16827;DHT22;8530;49.540;8.576;2023-04-23T00:20:34;14.30;99.60
16827;DHT22;8530;49.540;8.576;2023-04-23T00:23:01;14.30;99.90
16827;DHT22;8530;49.540;8.576;2023-04-23T00:25:28;14.30;99.70
16827;DHT22;8530;49.540;8.576;2023-04-23T00:27:54;14.30;99.80
16827;DHT22;8530;49.540;8.576;2023-04-23T00:30:21;14.20;99.90
16827;DHT22;8530;49.540;8.576;2023-04-23T00:32:48;14.20;99.90
16827;DHT22;8530;49.540;8.576;2023-04-23T00:35:14;14.20;99.90
16827;DHT22;8530;49.540;8.576;2023-04-23T00:37:44;14.20;99.90
16827;DHT22;8530;49.540;8.576;2023-04-23T00:40:11;14.20;99.90
16827;DHT22;8530;49.540;8.576;2023-04-23T00:42:39;14.20;99.90
16827;DHT22;8530;49.540;8.576;2023-04-23T00:45:07;14.20;99.90
16827;DHT22;8530;49.540;8.576;2023-04-23T00:47:34;14.20;99.90
16827;DHT22;8530;49.540;8.576;2023-04-23T00:50:02;14.20;99.90
16827;DHT22;8530;49.540;8.576;2023-04-23T00:52:29;14.20;99.90
16827;DHT22;8530;49.540;8.576;2023-04-23T00:54:57;14.20;99.90
16827;DHT22;8530;49.540;8.576;2023-04-23T00:57:24;14.20;99.90
16827;DHT22;8530;49.540;8.576;2023-04-23T00:59:51;14.20;99.90
16827;DHT22;8530;49.540;8.576;2023-04-23T01:02:19;14.10;99.90
16827;DHT22;8530;49.540;8.576;2023-04-23T01:04:46;14.10;99.90
16827;DHT22;8530;49.540;8.576;2023-04-23T01:07:15;14.10;99.90
16827;DHT22;8530;49.540;8.576;2023-04-23T01:12:54;14.00;99.90
16827;DHT22;8530;49.540;8.576;2023-04-23T01:15:21;14.00;99.90
16827;DHT22;8530;49.540;8.576;2023-04-23T01:17:47;13.90;99.90
16827;DHT22;8530;49.540;8.576;2023-04-23T01:20:15;13.90;99.90
16827;DHT22;8530;49.540;8.576;2023-04-23T01:22:43;13.90;99.90
16827;DHT22;8530;49.540;8.576;2023-04-23T01:25:10;13.90;99.90
16827;DHT22;8530;49.540;8.576;2023-04-23T01:27:37;13.90;99.90
16827;DHT22;8530;49.540;8.576;2023-04-23T01:30:05;13.80;99.90
16827;DHT22;8530;49.540;8.576;2023-04-23T01:32:33;13.80;99.90
16827;DHT22;8530;49.540;8.576;2023-04-23T01:35:00;13.80;99.90
16827;DHT22;8530;49.540;8.576;2023-04-23T01:37:28;13.80;99.90
16827;DHT22;8530;49.540;8.576;2023-04-23T01:39:56;13.80;99.90
16827;DHT22;8530;49.540;8.576;2023-04-23T01:42:23;13.80;99.90
16827;DHT22;8530;49.540;8.576;2023-04-23T01:44:50;13.70;99.90
16827;DHT22;8530;49.540;8.576;2023-04-23T01:47:18;13.70;99.90
16827;DHT22;8530;49.540;8.576;2023-04-23T01:49:44;13.70;99.90
16827;DHT22;8530;49.540;8.576;2023-04-23T01:52:11;13.70;99.90
16827;DHT22;8530;49.540;8.576;2023-04-23T01:54:38;13.60;99.90
16827;DHT22;8530;49.540;8.576;2023-04-23T01:57:06;13.60;99.90
16827;DHT22;8530;49.540;8.576;2023-04-23T01:59:33;13.60;99.90
16827;DHT22;8530;49.540;8.576;2023-04-23T02:01:59;13.60;99.90
16827;DHT22;8530;49.540;8.576;2023-04-23T02:04:27;13.60;99.90
16827;DHT22;8530;49.540;8.576;2023-04-23T02:06:55;13.50;99.90
16827;DHT22;8530;49.540;8.576;2023-04-23T02:09:22;13.50;99.90
16827;DHT22;8530;49.540;8.576;2023-04-23T02:11:48;13.50;99.90
16827;DHT22;8530;49.540;8.576;2023-04-23T02:14:17;13.50;99.90
16827;DHT22;8530;49.540;8.576;2023-04-23T02:16:43;13.50;99.90
16827;DHT22;8530;49.540;8.576;2023-04-23T02:19:11;13.50;99.90
16827;DHT22;8530;49.540;8.576;2023-04-23T02:21:40;13.50;99.90
16827;DHT22;8530;49.540;8.576;2023-04-23T02:24:07;13.50;99.90
16827;DHT22;8530;49.540;8.576;2023-04-23T02:26:33;13.40;99.90
16827;DHT22;8530;49.540;8.576;2023-04-23T02:29:00;13.40;99.90
16827;DHT22;8530;49.540;8.576;2023-04-23T02:31:28;13.40;99.90
16827;DHT22;8530;49.540;8.576;2023-04-23T02:33:55;13.40;99.90
16827;DHT22;8530;49.540;8.576;2023-04-23T02:36:22;13.40;99.90
16827;DHT22;8530;49.540;8.576;2023-04-23T02:38:49;13.40;99.90
16827;DHT22;8530;49.540;8.576;2023-04-23T02:41:15;13.40;99.90
16827;DHT22;8530;49.540;8.576;2023-04-23T02:43:42;13.40;99.90
16827;DHT22;8530;49.540;8.576;2023-04-23T02:46:09;13.40;99.90
16827;DHT22;8530;49.540;8.576;2023-04-23T02:48:39;13.40;99.90
16827;DHT22;8530;49.540;8.576;2023-04-23T02:51:08;13.40;99.90
16827;DHT22;8530;49.540;8.576;2023-04-23T02:53:35;13.30;99.90
16827;DHT22;8530;49.540;8.576;2023-04-23T02:56:02;13.30;99.90
16827;DHT22;8530;49.540;8.576;2023-04-23T02:58:29;13.30;99.90
16827;DHT22;8530;49.540;8.576;2023-04-23T03:00:56;13.30;99.90
16827;DHT22;8530;49.540;8.576;2023-04-23T03:03:24;13.30;99.90
16827;DHT22;8530;49.540;8.576;2023-04-23T03:05:53;13.30;99.90
16827;DHT22;8530;49.540;8.576;2023-04-23T03:08:20;13.30;99.90
16827;DHT22;8530;49.540;8.576;2023-04-23T03:10:47;13.20;99.90
16827;DHT22;8530;49.540;8.576;2023-04-23T03:13:13;13.20;99.90
16827;DHT22;8530;49.540;8.576;2023-04-23T03:15:41;13.20;99.90
16827;DHT22;8530;49.540;8.576;2023-04-23T03:18:07;13.20;99.90
16827;DHT22;8530;49.540;8.576;2023-04-23T03:20:34;13.20;99.90
16827;DHT22;8530;49.540;8.576;2023-04-23T03:23:03;13.10;99.90
16827;DHT22;8530;49.540;8.576;2023-04-23T03:25:31;13.10;99.90
16827;DHT22;8530;49.540;8.576;2023-04-23T03:27:57;13.10;99.90
16827;DHT22;8530;49.540;8.576;2023-04-23T03:30:24;13.10;99.90
16827;DHT22;8530;49.540;8.576;2023-04-23T03:32:53;13.10;99.90
16827;DHT22;8530;49.540;8.576;2023-04-23T03:35:20;13.20;99.90
16827;DHT22;8530;49.540;8.576;2023-04-23T03:37:47;13.10;99.90
16827;DHT22;8530;49.540;8.576;2023-04-23T03:40:15;13.10;99.90
16827;DHT22;8530;49.540;8.576;2023-04-23T03:42:42;13.10;99.90
16827;DHT22;8530;49.540;8.576;2023-04-23T03:45:09;13.20;99.90
16827;DHT22;8530;49.540;8.576;2023-04-23T03:47:36;13.20;99.90
16827;DHT22;8530;49.540;8.576;2023-04-23T03:50:03;13.10;99.90
16827;DHT22;8530;49.540;8.576;2023-04-23T03:52:30;13.10;99.90
16827;DHT22;8530;49.540;8.576;2023-04-23T03:54:56;13.10;99.90
16827;DHT22;8530;49.540;8.576;2023-04-23T03:57:24;13.10;99.90
16827;DHT22;8530;49.540;8.576;2023-04-23T03:59:51;13.20;99.90
16827;DHT22;8530;49.540;8.576;2023-04-23T04:02:18;13.20;99.90
16827;DHT22;8530;49.540;8.576;2023-04-23T04:04:45;13.10;99.90
16827;DHT22;8530;49.540;8.576;2023-04-23T04:07:14;13.10;99.90
16827;DHT22;8530;49.540;8.576;2023-04-23T04:09:40;13.10;99.90
16827;DHT22;8530;49.540;8.576;2023-04-23T04:12:07;13.10;99.90
16827;DHT22;8530;49.540;8.576;2023-04-23T04:14:35;13.00;99.90
16827;DHT22;8530;49.540;8.576;2023-04-23T04:17:02;13.00;99.90
16827;DHT22;8530;49.540;8.576;2023-04-23T04:19:28;13.10;99.90
16827;DHT22;8530;49.540;8.576;2023-04-23T04:21:55;13.10;99.90
16827;DHT22;8530;49.540;8.576;2023-04-23T04:24:22;13.00;99.90
16827;DHT22;8530;49.540;8.576;2023-04-23T04:26:49;13.10;99.90
16827;DHT22;8530;49.540;8.576;2023-04-23T04:29:18;13.10;99.90
16827;DHT22;8530;49.540;8.576;2023-04-23T04:31:47;13.10;99.90
16827;DHT22;8530;49.540;8.576;2023-04-23T04:34:13;13.00;99.90
16827;DHT22;8530;49.540;8.576;2023-04-23T04:36:40;13.00;99.90
16827;DHT22;8530;49.540;8.576;2023-04-23T04:39:07;13.00;99.90
16827;DHT22;8530;49.540;8.576;2023-04-23T04:41:35;13.00;99.90
16827;DHT22;8530;49.540;8.576;2023-04-23T04:44:02;12.90;99.90
16827;DHT22;8530;49.540;8.576;2023-04-23T04:46:29;12.90;99.90
16827;DHT22;8530;49.540;8.576;2023-04-23T04:48:57;12.90;99.90
16827;DHT22;8530;49.540;8.576;2023-04-23T04:51:24;12.90;99.90
16827;DHT22;8530;49.540;8.576;2023-04-23T04:53:51;12.80;99.90
16827;DHT22;8530;49.540;8.576;2023-04-23T04:56:18;12.80;99.90
16827;DHT22;8530;49.540;8.576;2023-04-23T04:58:46;12.80;99.90
16827;DHT22;8530;49.540;8.576;2023-04-23T05:01:14;12.80;99.90
16827;DHT22;8530;49.540;8.576;2023-04-23T05:03:40;12.80;99.90
16827;DHT22;8530;49.540;8.576;2023-04-23T05:06:08;12.80;99.90
16827;DHT22;8530;49.540;8.576;2023-04-23T05:08:35;12.80;99.90
16827;DHT22;8530;49.540;8.576;2023-04-23T05:11:02;12.80;99.90
16827;DHT22;8530;49.540;8.576;2023-04-23T05:13:29;12.80;99.90
16827;DHT22;8530;49.540;8.576;2023-04-23T05:15:55;12.90;99.90
16827;DHT22;8530;49.540;8.576;2023-04-23T05:18:22;12.90;99.90
16827;DHT22;8530;49.540;8.576;2023-04-23T05:20:49;12.90;99.90
16827;DHT22;8530;49.540;8.576;2023-04-23T05:23:17;12.90;99.90
16827;DHT22;8530;49.540;8.576;2023-04-23T05:25:44;13.00;99.90
16827;DHT22;8530;49.540;8.576;2023-04-23T05:28:10;13.00;99.90
16827;DHT22;8530;49.540;8.576;2023-04-23T05:30:37;13.10;99.90
16827;DHT22;8530;49.540;8.576;2023-04-23T05:33:04;13.10;99.90
16827;DHT22;8530;49.540;8.576;2023-04-23T05:35:30;13.10;99.90
16827;DHT22;8530;49.540;8.576;2023-04-23T05:37:57;13.20;99.90
16827;DHT22;8530;49.540;8.576;2023-04-23T05:40:25;13.10;99.90
16827;DHT22;8530;49.540;8.576;2023-04-23T05:42:52;13.20;99.90
16827;DHT22;8530;49.540;8.576;2023-04-23T05:45:19;13.20;99.90
16827;DHT22;8530;49.540;8.576;2023-04-23T05:47:46;13.20;99.90
16827;DHT22;8530;49.540;8.576;2023-04-23T05:50:12;13.30;99.90
16827;DHT22;8530;49.540;8.576;2023-04-23T05:52:39;13.40;99.90
16827;DHT22;8530;49.540;8.576;2023-04-23T05:55:07;13.50;99.90
16827;DHT22;8530;49.540;8.576;2023-04-23T05:57:35;13.60;99.90
16827;DHT22;8530;49.540;8.576;2023-04-23T06:00:03;13.70;99.90
16827;DHT22;8530;49.540;8.576;2023-04-23T06:02:31;13.80;99.90
16827;DHT22;8530;49.540;8.576;2023-04-23T06:04:58;13.90;99.90
16827;DHT22;8530;49.540;8.576;2023-04-23T06:07:25;14.00;99.90
16827;DHT22;8530;49.540;8.576;2023-04-23T06:09:51;14.10;99.90
16827;DHT22;8530;49.540;8.576;2023-04-23T06:12:18;14.20;99.90
16827;DHT22;8530;49.540;8.576;2023-04-23T06:14:46;14.30;99.90
16827;DHT22;8530;49.540;8.576;2023-04-23T06:17:13;14.40;99.90
16827;DHT22;8530;49.540;8.576;2023-04-23T06:19:40;14.50;99.90
16827;DHT22;8530;49.540;8.576;2023-04-23T06:22:06;14.70;99.90
16827;DHT22;8530;49.540;8.576;2023-04-23T06:24:34;14.80;99.90
16827;DHT22;8530;49.540;8.576;2023-04-23T06:27:00;14.90;99.90
16827;DHT22;8530;49.540;8.576;2023-04-23T06:29:27;15.10;99.90
16827;DHT22;8530;49.540;8.576;2023-04-23T06:31:56;15.30;99.90
16827;DHT22;8530;49.540;8.576;2023-04-23T06:34:23;15.50;99.90
16827;DHT22;8530;49.540;8.576;2023-04-23T06:36:50;15.80;99.90
16827;DHT22;8530;49.540;8.576;2023-04-23T06:39:17;16.20;99.90
16827;DHT22;8530;49.540;8.576;2023-04-23T06:41:43;16.80;99.90
16827;DHT22;8530;49.540;8.576;2023-04-23T06:44:10;17.30;99.90
16827;DHT22;8530;49.540;8.576;2023-04-23T06:46:37;17.70;99.90
16827;DHT22;8530;49.540;8.576;2023-04-23T06:49:05;19.60;99.90
16827;DHT22;8530;49.540;8.576;2023-04-23T06:51:31;22.30;99.90
16827;DHT22;8530;49.540;8.576;2023-04-23T06:53:58;24.90;99.90
16827;DHT22;8530;49.540;8.576;2023-04-23T06:56:25;27.30;99.90
16827;DHT22;8530;49.540;8.576;2023-04-23T06:58:52;29.50;98.10
16827;DHT22;8530;49.540;8.576;2023-04-23T07:01:18;31.30;93.20
16827;DHT22;8530;49.540;8.576;2023-04-23T07:03:45;32.70;86.10
16827;DHT22;8530;49.540;8.576;2023-04-23T07:06:14;33.60;73.20
16827;DHT22;8530;49.540;8.576;2023-04-23T07:08:41;34.30;61.70
16827;DHT22;8530;49.540;8.576;2023-04-23T07:13:41;33.90;48.40
16827;DHT22;8530;49.540;8.576;2023-04-23T07:16:08;33.10;46.50
16827;DHT22;8530;49.540;8.576;2023-04-23T07:18:34;32.10;42.80
16827;DHT22;8530;49.540;8.576;2023-04-23T07:21:01;31.00;43.20
16827;DHT22;8530;49.540;8.576;2023-04-23T07:23:29;30.30;42.90
16827;DHT22;8530;49.540;8.576;2023-04-23T07:25:56;29.50;42.40
16827;DHT22;8530;49.540;8.576;2023-04-23T07:28:22;30.20;43.50
16827;DHT22;8530;49.540;8.576;2023-04-23T07:30:49;30.90;42.60
16827;DHT22;8530;49.540;8.576;2023-04-23T07:33:16;30.10;40.10
16827;DHT22;8530;49.540;8.576;2023-04-23T07:35:43;28.80;39.10
16827;DHT22;8530;49.540;8.576;2023-04-23T07:38:09;28.60;40.30
16827;DHT22;8530;49.540;8.576;2023-04-23T07:40:37;29.40;40.70
16827;DHT22;8530;49.540;8.576;2023-04-23T07:43:04;30.90;40.70
16827;DHT22;8530;49.540;8.576;2023-04-23T07:45:31;32.70;40.00
16827;DHT22;8530;49.540;8.576;2023-04-23T07:47:58;34.50;39.00
16827;DHT22;8530;49.540;8.576;2023-04-23T07:50:26;36.20;37.00
16827;DHT22;8530;49.540;8.576;2023-04-23T07:52:53;37.30;33.70
16827;DHT22;8530;49.540;8.576;2023-04-23T07:55:20;38.30;31.80
16827;DHT22;8530;49.540;8.576;2023-04-23T07:57:48;39.40;30.00
16827;DHT22;8530;49.540;8.576;2023-04-23T08:00:15;40.10;28.20
16827;DHT22;8530;49.540;8.576;2023-04-23T08:02:42;39.50;26.60
16827;DHT22;8530;49.540;8.576;2023-04-23T08:05:09;39.10;25.80
16827;DHT22;8530;49.540;8.576;2023-04-23T08:07:35;38.80;25.10
16827;DHT22;8530;49.540;8.576;2023-04-23T08:10:02;38.40;24.30
16827;DHT22;8530;49.540;8.576;2023-04-23T08:12:31;37.50;23.80
16827;DHT22;8530;49.540;8.576;2023-04-23T08:15:00;36.60;23.30
16827;DHT22;8530;49.540;8.576;2023-04-23T08:17:27;35.10;23.00
16827;DHT22;8530;49.540;8.576;2023-04-23T08:19:53;33.20;23.00
16827;DHT22;8530;49.540;8.576;2023-04-23T08:22:20;31.50;23.40
16827;DHT22;8530;49.540;8.576;2023-04-23T08:24:47;30.00;24.00
16827;DHT22;8530;49.540;8.576;2023-04-23T08:27:14;28.70;24.80
16827;DHT22;8530;49.540;8.576;2023-04-23T08:29:40;27.70;25.70
16827;DHT22;8530;49.540;8.576;2023-04-23T08:32:08;27.10;26.40
16827;DHT22;8530;49.540;8.576;2023-04-23T08:34:35;26.70;27.30
16827;DHT22;8530;49.540;8.576;2023-04-23T08:37:02;26.30;27.60
16827;DHT22;8530;49.540;8.576;2023-04-23T08:39:30;25.50;28.10
16827;DHT22;8530;49.540;8.576;2023-04-23T08:42:04;25.20;28.70
16827;DHT22;8530;49.540;8.576;2023-04-23T08:44:37;24.70;29.30
16827;DHT22;8530;49.540;8.576;2023-04-23T08:47:06;24.20;30.00
16827;DHT22;8530;49.540;8.576;2023-04-23T08:49:40;23.70;30.80
16827;DHT22;8530;49.540;8.576;2023-04-23T08:52:14;23.30;31.80
16827;DHT22;8530;49.540;8.576;2023-04-23T08:54:46;22.90;32.20
16827;DHT22;8530;49.540;8.576;2023-04-23T08:57:15;22.50;32.90
16827;DHT22;8530;49.540;8.576;2023-04-23T08:59:44;22.30;33.70
16827;DHT22;8530;49.540;8.576;2023-04-23T09:02:12;22.10;33.90
16827;DHT22;8530;49.540;8.576;2023-04-23T09:04:41;21.90;34.50
16827;DHT22;8530;49.540;8.576;2023-04-23T09:07:08;21.80;35.20
16827;DHT22;8530;49.540;8.576;2023-04-23T09:09:36;21.70;35.80
16827;DHT22;8530;49.540;8.576;2023-04-23T09:12:04;21.80;36.40
16827;DHT22;8530;49.540;8.576;2023-04-23T09:14:32;22.00;36.80
16827;DHT22;8530;49.540;8.576;2023-04-23T09:16:59;22.30;37.20
16827;DHT22;8530;49.540;8.576;2023-04-23T09:19:26;22.50;37.50
16827;DHT22;8530;49.540;8.576;2023-04-23T09:21:55;22.70;37.70
16827;DHT22;8530;49.540;8.576;2023-04-23T09:24:23;22.80;37.70
16827;DHT22;8530;49.540;8.576;2023-04-23T09:26:51;22.90;37.70
16827;DHT22;8530;49.540;8.576;2023-04-23T09:29:20;22.80;37.90
16827;DHT22;8530;49.540;8.576;2023-04-23T09:31:49;23.00;38.20
16827;DHT22;8530;49.540;8.576;2023-04-23T09:34:16;23.30;38.20
16827;DHT22;8530;49.540;8.576;2023-04-23T09:36:44;23.40;37.90
16827;DHT22;8530;49.540;8.576;2023-04-23T09:39:13;23.30;37.70
16827;DHT22;8530;49.540;8.576;2023-04-23T09:41:40;23.30;37.80
16827;DHT22;8530;49.540;8.576;2023-04-23T09:44:07;23.40;38.00
16827;DHT22;8530;49.540;8.576;2023-04-23T09:46:36;23.40;38.10
16827;DHT22;8530;49.540;8.576;2023-04-23T09:49:04;23.40;38.30
16827;DHT22;8530;49.540;8.576;2023-04-23T09:51:34;23.50;38.40
16827;DHT22;8530;49.540;8.576;2023-04-23T09:54:01;23.40;38.10
16827;DHT22;8530;49.540;8.576;2023-04-23T09:56:30;23.30;38.30
16827;DHT22;8530;49.540;8.576;2023-04-23T09:58:57;23.30;38.40
16827;DHT22;8530;49.540;8.576;2023-04-23T10:01:28;23.30;38.50
16827;DHT22;8530;49.540;8.576;2023-04-23T10:03:55;23.40;38.30
16827;DHT22;8530;49.540;8.576;2023-04-23T10:06:29;23.40;38.20
16827;DHT22;8530;49.540;8.576;2023-04-23T10:08:56;23.50;38.20
16827;DHT22;8530;49.540;8.576;2023-04-23T10:11:24;23.60;38.20
16827;DHT22;8530;49.540;8.576;2023-04-23T10:13:53;23.80;38.20
16827;DHT22;8530;49.540;8.576;2023-04-23T10:16:21;23.90;38.00
16827;DHT22;8530;49.540;8.576;2023-04-23T10:18:50;24.00;37.90
16827;DHT22;8530;49.540;8.576;2023-04-23T10:21:18;24.10;38.00
16827;DHT22;8530;49.540;8.576;2023-04-23T10:23:46;24.40;37.90
16827;DHT22;8530;49.540;8.576;2023-04-23T10:26:15;24.50;37.80
16827;DHT22;8530;49.540;8.576;2023-04-23T10:28:46;24.60;37.60
16827;DHT22;8530;49.540;8.576;2023-04-23T10:31:14;24.60;37.10
16827;DHT22;8530;49.540;8.576;2023-04-23T10:33:42;24.70;37.10
16827;DHT22;8530;49.540;8.576;2023-04-23T10:36:09;24.80;37.00
16827;DHT22;8530;49.540;8.576;2023-04-23T10:38:37;24.80;36.80
16827;DHT22;8530;49.540;8.576;2023-04-23T10:41:06;24.90;36.70
16827;DHT22;8530;49.540;8.576;2023-04-23T10:43:34;25.10;36.60
16827;DHT22;8530;49.540;8.576;2023-04-23T10:46:01;25.30;36.50
16827;DHT22;8530;49.540;8.576;2023-04-23T10:49:00;25.30;36.10
16827;DHT22;8530;49.540;8.576;2023-04-23T10:51:33;25.10;35.40
16827;DHT22;8530;49.540;8.576;2023-04-23T10:54:02;25.00;35.50
16827;DHT22;8530;49.540;8.576;2023-04-23T10:56:29;24.90;35.30
16827;DHT22;8530;49.540;8.576;2023-04-23T10:58:56;24.90;35.30
16827;DHT22;8530;49.540;8.576;2023-04-23T11:01:24;24.90;35.10
16827;DHT22;8530;49.540;8.576;2023-04-23T11:03:52;24.80;34.80
16827;DHT22;8530;49.540;8.576;2023-04-23T11:07:03;24.80;34.90
16827;DHT22;8530;49.540;8.576;2023-04-23T11:09:38;25.00;35.10
16827;DHT22;8530;49.540;8.576;2023-04-23T11:12:07;25.30;34.80
16827;DHT22;8530;49.540;8.576;2023-04-23T11:14:41;25.60;34.60
16827;DHT22;8530;49.540;8.576;2023-04-23T11:17:11;25.60;34.30
16827;DHT22;8530;49.540;8.576;2023-04-23T11:19:40;25.60;33.90
16827;DHT22;8530;49.540;8.576;2023-04-23T11:22:13;25.40;33.60
16827;DHT22;8530;49.540;8.576;2023-04-23T11:24:42;25.30;33.30
16827;DHT22;8530;49.540;8.576;2023-04-23T11:27:11;25.20;33.20
16827;DHT22;8530;49.540;8.576;2023-04-23T11:29:39;25.00;33.00
16827;DHT22;8530;49.540;8.576;2023-04-23T11:32:07;24.80;32.90
16827;DHT22;8530;49.540;8.576;2023-04-23T11:34:35;24.70;33.00
16827;DHT22;8530;49.540;8.576;2023-04-23T11:37:03;24.80;33.30
16827;DHT22;8530;49.540;8.576;2023-04-23T11:39:30;24.90;33.20
16827;DHT22;8530;49.540;8.576;2023-04-23T11:41:57;25.10;33.10
16827;DHT22;8530;49.540;8.576;2023-04-23T11:44:27;25.50;32.80
16827;DHT22;8530;49.540;8.576;2023-04-23T11:46:54;25.80;32.30
16827;DHT22;8530;49.540;8.576;2023-04-23T11:49:20;26.10;31.90
16827;DHT22;8530;49.540;8.576;2023-04-23T11:51:47;26.30;31.40
16827;DHT22;8530;49.540;8.576;2023-04-23T11:54:15;26.30;31.00
16827;DHT22;8530;49.540;8.576;2023-04-23T11:56:43;26.20;30.90
16827;DHT22;8530;49.540;8.576;2023-04-23T11:59:10;26.10;30.90
16827;DHT22;8530;49.540;8.576;2023-04-23T12:01:45;26.20;30.90
16827;DHT22;8530;49.540;8.576;2023-04-23T12:04:13;26.30;30.60
16827;DHT22;8530;49.540;8.576;2023-04-23T12:06:42;26.50;30.40
16827;DHT22;8530;49.540;8.576;2023-04-23T12:09:10;26.70;30.10
16827;DHT22;8530;49.540;8.576;2023-04-23T12:11:40;26.70;30.30
16827;DHT22;8530;49.540;8.576;2023-04-23T12:14:07;26.50;29.60
16827;DHT22;8530;49.540;8.576;2023-04-23T12:16:35;26.20;29.40
16827;DHT22;8530;49.540;8.576;2023-04-23T12:19:02;25.80;29.10
16827;DHT22;8530;49.540;8.576;2023-04-23T12:21:29;25.50;29.20
16827;DHT22;8530;49.540;8.576;2023-04-23T12:23:56;25.30;29.20
16827;DHT22;8530;49.540;8.576;2023-04-23T12:26:24;25.10;29.20
16827;DHT22;8530;49.540;8.576;2023-04-23T12:28:54;25.10;29.30
16827;DHT22;8530;49.540;8.576;2023-04-23T12:31:22;25.30;29.30
16827;DHT22;8530;49.540;8.576;2023-04-23T12:33:55;25.20;29.20
16827;DHT22;8530;49.540;8.576;2023-04-23T12:36:26;25.10;29.10
16827;DHT22;8530;49.540;8.576;2023-04-23T12:38:53;25.10;29.10
16827;DHT22;8530;49.540;8.576;2023-04-23T12:41:20;25.20;29.10
16827;DHT22;8530;49.540;8.576;2023-04-23T12:43:47;25.30;29.10
16827;DHT22;8530;49.540;8.576;2023-04-23T12:46:16;25.30;29.10
16827;DHT22;8530;49.540;8.576;2023-04-23T12:48:42;25.40;29.10
16827;DHT22;8530;49.540;8.576;2023-04-23T12:51:09;25.50;29.00
16827;DHT22;8530;49.540;8.576;2023-04-23T12:53:36;25.60;29.00
16827;DHT22;8530;49.540;8.576;2023-04-23T12:56:03;25.60;28.90
16827;DHT22;8530;49.540;8.576;2023-04-23T12:58:30;25.70;28.80
16827;DHT22;8530;49.540;8.576;2023-04-23T13:00:57;25.70;28.70
16827;DHT22;8530;49.540;8.576;2023-04-23T13:03:25;25.60;28.40
16827;DHT22;8530;49.540;8.576;2023-04-23T13:05:52;25.60;28.40
16827;DHT22;8530;49.540;8.576;2023-04-23T13:08:19;25.50;28.30
16827;DHT22;8530;49.540;8.576;2023-04-23T13:10:45;25.40;28.70
16827;DHT22;8530;49.540;8.576;2023-04-23T13:13:14;25.30;28.20
16827;DHT22;8530;49.540;8.576;2023-04-23T13:15:41;25.20;28.30
16827;DHT22;8530;49.540;8.576;2023-04-23T13:18:08;25.30;28.40
16827;DHT22;8530;49.540;8.576;2023-04-23T13:20:36;25.50;28.40
16827;DHT22;8530;49.540;8.576;2023-04-23T13:23:02;25.70;28.30
16827;DHT22;8530;49.540;8.576;2023-04-23T13:25:29;25.80;28.10
16827;DHT22;8530;49.540;8.576;2023-04-23T13:27:56;26.00;28.00
16827;DHT22;8530;49.540;8.576;2023-04-23T13:30:23;26.40;27.90
16827;DHT22;8530;49.540;8.576;2023-04-23T13:32:49;26.70;27.70
16827;DHT22;8530;49.540;8.576;2023-04-23T13:35:16;26.70;27.60
16827;DHT22;8530;49.540;8.576;2023-04-23T13:37:44;26.60;27.60
16827;DHT22;8530;49.540;8.576;2023-04-23T13:40:11;26.50;27.40
16827;DHT22;8530;49.540;8.576;2023-04-23T13:42:38;26.30;27.30
16827;DHT22;8530;49.540;8.576;2023-04-23T13:45:06;26.10;27.20
16827;DHT22;8530;49.540;8.576;2023-04-23T13:47:33;26.00;27.10
16827;DHT22;8530;49.540;8.576;2023-04-23T13:50:01;25.90;26.80
16827;DHT22;8530;49.540;8.576;2023-04-23T13:52:31;25.80;26.80
16827;DHT22;8530;49.540;8.576;2023-04-23T13:54:59;25.80;26.70
16827;DHT22;8530;49.540;8.576;2023-04-23T13:57:27;26.00;26.70
16827;DHT22;8530;49.540;8.576;2023-04-23T13:59:54;26.10;26.80
16827;DHT22;8530;49.540;8.576;2023-04-23T14:02:22;26.00;27.10
16827;DHT22;8530;49.540;8.576;2023-04-23T14:04:49;25.80;27.30
16827;DHT22;8530;49.540;8.576;2023-04-23T14:07:16;25.60;27.50
16827;DHT22;8530;49.540;8.576;2023-04-23T14:09:42;25.50;27.80
16827;DHT22;8530;49.540;8.576;2023-04-23T14:12:12;25.50;28.10
16827;DHT22;8530;49.540;8.576;2023-04-23T14:14:40;25.40;28.40
16827;DHT22;8530;49.540;8.576;2023-04-23T14:17:07;25.10;28.50
16827;DHT22;8530;49.540;8.576;2023-04-23T14:19:33;24.80;28.60
16827;DHT22;8530;49.540;8.576;2023-04-23T14:22:02;24.80;29.00
16827;DHT22;8530;49.540;8.576;2023-04-23T14:24:37;24.90;29.20
16827;DHT22;8530;49.540;8.576;2023-04-23T14:27:04;24.90;29.20
16827;DHT22;8530;49.540;8.576;2023-04-23T14:29:39;24.80;29.10
16827;DHT22;8530;49.540;8.576;2023-04-23T14:32:06;24.80;29.30
16827;DHT22;8530;49.540;8.576;2023-04-23T14:34:33;24.80;29.50
16827;DHT22;8530;49.540;8.576;2023-04-23T14:37:00;24.80;29.50
16827;DHT22;8530;49.540;8.576;2023-04-23T14:39:27;24.60;29.50
16827;DHT22;8530;49.540;8.576;2023-04-23T14:41:54;24.40;29.60
16827;DHT22;8530;49.540;8.576;2023-04-23T14:44:21;24.30;29.70
16827;DHT22;8530;49.540;8.576;2023-04-23T14:46:52;24.30;29.90
16827;DHT22;8530;49.540;8.576;2023-04-23T14:49:19;24.30;30.00
16827;DHT22;8530;49.540;8.576;2023-04-23T14:51:46;24.40;30.60
16827;DHT22;8530;49.540;8.576;2023-04-23T14:54:14;24.30;30.00
16827;DHT22;8530;49.540;8.576;2023-04-23T14:56:41;24.20;30.00
16827;DHT22;8530;49.540;8.576;2023-04-23T14:59:07;24.20;30.10
16827;DHT22;8530;49.540;8.576;2023-04-23T15:01:34;24.20;30.20
16827;DHT22;8530;49.540;8.576;2023-04-23T15:04:02;24.10;30.30
16827;DHT22;8530;49.540;8.576;2023-04-23T15:06:29;24.00;30.40
16827;DHT22;8530;49.540;8.576;2023-04-23T15:08:57;23.90;30.50
16827;DHT22;8530;49.540;8.576;2023-04-23T15:11:24;23.90;30.70
16827;DHT22;8530;49.540;8.576;2023-04-23T15:13:55;23.90;30.90
16827;DHT22;8530;49.540;8.576;2023-04-23T15:16:26;23.90;31.00
16827;DHT22;8530;49.540;8.576;2023-04-23T15:18:55;23.90;31.00
16827;DHT22;8530;49.540;8.576;2023-04-23T15:21:24;23.80;31.00
16827;DHT22;8530;49.540;8.576;2023-04-23T15:23:51;23.70;31.20
16827;DHT22;8530;49.540;8.576;2023-04-23T15:26:18;23.60;31.40
16827;DHT22;8530;49.540;8.576;2023-04-23T15:28:45;23.50;31.50
16827;DHT22;8530;49.540;8.576;2023-04-23T15:31:12;23.50;31.70
16827;DHT22;8530;49.540;8.576;2023-04-23T15:33:38;23.40;31.70
16827;DHT22;8530;49.540;8.576;2023-04-23T15:36:05;23.30;31.80
16827;DHT22;8530;49.540;8.576;2023-04-23T15:38:33;23.30;32.00
16827;DHT22;8530;49.540;8.576;2023-04-23T15:41:00;23.30;32.20
16827;DHT22;8530;49.540;8.576;2023-04-23T15:43:27;23.30;32.30
16827;DHT22;8530;49.540;8.576;2023-04-23T15:45:53;23.20;32.20
16827;DHT22;8530;49.540;8.576;2023-04-23T15:48:23;23.10;32.30
16827;DHT22;8530;49.540;8.576;2023-04-23T15:50:51;23.00;32.30
16827;DHT22;8530;49.540;8.576;2023-04-23T15:53:18;23.00;32.50